createdAt,value
2018-10-19T00:00:45.669Z,54.67
2018-10-19T00:03:14.292Z,55.06
2018-10-19T00:05:43.131Z,55.20
2018-10-19T00:08:11.536Z,54.61
2018-10-19T00:10:40.043Z,55.40
2018-10-19T00:13:08.409Z,54.84
2018-10-19T00:15:36.932Z,54.94
2018-10-19T00:18:05.744Z,54.86
2018-10-19T00:20:34.103Z,55.31
2018-10-19T00:23:02.697Z,55.10
2018-10-19T00:25:30.993Z,55.06
2018-10-19T00:27:59.347Z,55.15
2018-10-19T00:30:27.735Z,54.50
2018-10-19T00:32:56.134Z,54.98
2018-10-19T00:35:24.476Z,55.25
2018-10-19T00:37:52.931Z,54.60
2018-10-19T00:40:21.446Z,54.41
2018-10-19T00:42:49.858Z,54.17
2018-10-19T00:45:18.185Z,55.37
2018-10-19T00:47:47.219Z,54.80
2018-10-19T00:50:15.578Z,54.16
2018-10-19T00:52:44.011Z,54.73
2018-10-19T00:55:12.466Z,54.80
2018-10-19T00:57:40.842Z,54.27
2018-10-19T01:00:09.216Z,54.22
2018-10-19T01:02:37.623Z,54.28
2018-10-19T01:05:06.243Z,54.59
2018-10-19T01:07:34.657Z,54.39
2018-10-19T01:10:03.089Z,54.84
2018-10-19T01:12:31.478Z,55.10
2018-10-19T01:14:59.994Z,54.26
2018-10-19T01:17:28.506Z,55.05
2018-10-19T01:19:56.862Z,55.25
2018-10-19T01:22:25.171Z,54.98
2018-10-19T01:24:53.540Z,55.15
2018-10-19T01:27:21.892Z,55.38
2018-10-19T01:29:50.260Z,54.49
2018-10-19T01:32:18.579Z,54.96
2018-10-19T01:34:46.891Z,54.40
2018-10-19T01:37:15.227Z,54.11
2018-10-19T01:39:43.678Z,55.01
2018-10-19T01:42:11.999Z,54.08
2018-10-19T01:44:40.316Z,54.25
2018-10-19T01:47:08.748Z,55.18
2018-10-19T01:49:37.051Z,54.43
2018-10-19T01:52:06.018Z,54.81
2018-10-19T01:54:34.412Z,54.94
2018-10-19T01:57:02.762Z,55.00
2018-10-19T01:59:31.074Z,54.23
2018-10-19T02:01:59.366Z,54.35
2018-10-19T02:04:27.892Z,54.87
2018-10-19T02:06:56.277Z,55.14
2018-10-19T02:09:24.770Z,54.30
2018-10-19T02:11:54.075Z,55.06
2018-10-19T02:14:22.437Z,54.94
2018-10-19T02:16:50.891Z,54.89
2018-10-19T02:19:19.364Z,53.96
2018-10-19T02:21:47.753Z,54.17
2018-10-19T02:24:16.151Z,54.47
2018-10-19T02:26:44.466Z,54.08
2018-10-19T02:29:12.900Z,54.54
2018-10-19T02:31:41.410Z,54.49
2018-10-19T02:34:09.817Z,54.00
2018-10-19T02:36:38.167Z,54.77
2018-10-19T02:39:07.853Z,54.22
2018-10-19T02:41:36.291Z,54.09
2018-10-19T02:44:04.766Z,54.69
2018-10-19T02:46:33.154Z,55.19
2018-10-19T02:49:01.507Z,54.19
2018-10-19T02:51:29.888Z,54.24
2018-10-19T02:53:58.210Z,54.39
2018-10-19T02:56:26.608Z,54.05
2018-10-19T02:58:54.945Z,54.57
2018-10-19T03:01:23.309Z,54.95
2018-10-19T03:03:51.690Z,54.38
2018-10-19T03:06:20.041Z,53.99
2018-10-19T03:08:48.360Z,54.36
2018-10-19T03:11:16.785Z,55.15
2018-10-19T03:13:45.175Z,54.26
2018-10-19T03:16:13.668Z,54.05
2018-10-19T03:18:42.118Z,54.65
2018-10-19T03:21:10.884Z,54.22
2018-10-19T03:23:39.435Z,54.17
2018-10-19T03:26:08.771Z,53.98
2018-10-19T03:28:37.176Z,54.39
2018-10-19T03:31:06.139Z,54.45
2018-10-19T03:33:34.686Z,54.86
2018-10-19T03:36:03.027Z,54.58
2018-10-19T03:38:31.313Z,54.99
2018-10-19T03:41:00.527Z,54.47
2018-10-19T03:43:28.852Z,54.01
2018-10-19T03:45:57.188Z,54.15
2018-10-19T03:48:25.611Z,54.94
2018-10-19T03:50:54.017Z,54.88
2018-10-19T03:53:22.440Z,54.58
2018-10-19T03:55:50.762Z,54.24
2018-10-19T03:58:19.141Z,54.74
2018-10-19T04:00:47.473Z,54.14
2018-10-19T04:03:15.893Z,54.70
2018-10-19T04:05:44.267Z,54.13
2018-10-19T04:08:12.728Z,54.70
2018-10-19T04:10:41.022Z,54.52
2018-10-19T04:13:09.342Z,54.69
2018-10-19T04:15:37.670Z,54.48
2018-10-19T04:18:06.024Z,54.40
2018-10-19T04:20:34.502Z,54.78
2018-10-19T04:23:08.321Z,55.06
2018-10-19T04:25:37.628Z,55.87
2018-10-19T04:28:06.203Z,55.69
2018-10-19T04:30:35.844Z,55.18
2018-10-19T04:33:04.363Z,55.88
2018-10-19T04:35:32.784Z,56.01
2018-10-19T04:38:01.596Z,54.61
2018-10-19T04:40:29.889Z,55.77
2018-10-19T04:42:58.211Z,55.77
2018-10-19T04:45:26.587Z,55.65
2018-10-19T04:47:54.924Z,55.28
2018-10-19T04:50:23.234Z,55.78
2018-10-19T04:52:51.578Z,55.44
2018-10-19T04:55:21.231Z,56.08
2018-10-19T04:57:49.583Z,55.97
2018-10-19T05:00:19.945Z,56.42
2018-10-19T05:02:49.095Z,55.80
2018-10-19T05:05:17.550Z,55.93
2018-10-19T05:07:45.805Z,55.89
2018-10-19T05:10:14.175Z,56.14
2018-10-19T05:12:42.624Z,56.30
2018-10-19T05:15:11.823Z,55.94
2018-10-19T05:17:40.223Z,56.10
2018-10-19T05:20:10.410Z,55.63
2018-10-19T05:22:38.922Z,56.04
2018-10-19T05:25:09.243Z,54.96
2018-10-19T05:27:37.760Z,55.09
2018-10-19T05:30:08.880Z,54.79
2018-10-19T05:32:37.227Z,55.31
2018-10-19T05:35:06.866Z,54.52
2018-10-19T05:37:35.382Z,54.69
2018-10-19T05:40:03.725Z,54.87
2018-10-19T05:42:32.039Z,54.99
2018-10-19T05:45:00.343Z,54.78
2018-10-19T05:47:28.686Z,55.09
2018-10-19T05:49:57.052Z,55.59
2018-10-19T05:52:25.620Z,55.87
2018-10-19T05:54:53.971Z,55.60
2018-10-19T05:57:22.339Z,55.67
2018-10-19T05:59:50.756Z,55.56
2018-10-19T06:02:19.180Z,55.63
2018-10-19T06:04:47.461Z,55.64
2018-10-19T06:07:15.859Z,55.58
2018-10-19T06:09:44.175Z,54.94
2018-10-19T06:12:12.478Z,54.82
2018-10-19T06:14:40.880Z,55.44
2018-10-19T06:17:09.270Z,55.04
2018-10-19T06:19:37.504Z,55.79
2018-10-19T06:22:05.842Z,55.29
2018-10-19T06:24:34.183Z,55.92
2018-10-19T06:27:02.478Z,55.63
2018-10-19T06:29:30.844Z,56.07
2018-10-19T06:31:59.149Z,55.01
2018-10-19T06:34:27.508Z,54.66
2018-10-19T06:36:55.843Z,55.36
2018-10-19T06:57:59.408Z,57.01
2018-10-19T07:00:27.837Z,55.98
2018-10-19T07:02:56.197Z,56.09
2018-10-19T07:05:24.636Z,56.82
2018-10-19T07:07:53.068Z,55.76
2018-10-19T07:10:21.523Z,56.15
2018-10-19T07:12:50.082Z,55.70
2018-10-19T07:15:18.668Z,55.14
2018-10-19T07:17:47.109Z,55.39
2018-10-19T07:20:15.579Z,55.08
2018-10-19T07:22:43.937Z,55.80
2018-10-19T07:25:12.308Z,55.90
2018-10-19T07:27:40.641Z,54.95
2018-10-19T07:30:09.245Z,54.89
2018-10-19T07:32:37.672Z,54.51
2018-10-19T07:35:07.021Z,54.16
2018-10-19T07:37:35.449Z,53.86
2018-10-19T07:40:04.560Z,53.68
2018-10-19T07:42:32.963Z,54.35
2018-10-19T07:45:01.338Z,53.65
2018-10-19T07:47:29.824Z,53.91
2018-10-19T07:49:58.231Z,53.56
2018-10-19T07:52:26.552Z,54.27
2018-10-19T07:54:54.900Z,53.27
2018-10-19T07:57:23.255Z,53.83
2018-10-19T07:59:51.701Z,54.20
2018-10-19T08:02:20.057Z,53.52
2018-10-19T08:04:48.486Z,53.82
2018-10-19T08:07:16.920Z,53.76
2018-10-19T08:09:45.420Z,52.67
2018-10-19T08:12:13.799Z,53.68
2018-10-19T08:14:42.317Z,53.15
2018-10-19T08:17:10.811Z,52.77
2018-10-19T08:19:39.077Z,52.64
2018-10-19T08:22:07.718Z,52.60
2018-10-19T08:24:36.100Z,52.65
2018-10-19T08:27:04.963Z,53.24
2018-10-19T08:29:33.284Z,52.57
2018-10-19T08:32:01.797Z,53.16
2018-10-19T08:34:30.128Z,53.01
2018-10-19T08:36:58.588Z,53.21
2018-10-19T08:39:26.968Z,52.71
2018-10-19T08:41:55.384Z,52.67
2018-10-19T08:44:23.790Z,52.24
2018-10-19T08:46:52.104Z,52.57
2018-10-19T08:49:20.460Z,53.01
2018-10-19T08:51:48.797Z,52.13
2018-10-19T08:54:17.152Z,52.57
2018-10-19T08:56:45.600Z,52.10
2018-10-19T08:59:14.016Z,52.83
2018-10-19T09:01:42.412Z,52.23
2018-10-19T09:04:10.927Z,51.88
2018-10-19T09:06:40.296Z,52.25
2018-10-19T09:09:10.425Z,51.67
2018-10-19T09:11:39.155Z,51.30
2018-10-19T09:14:18.887Z,52.30
2018-10-19T09:16:47.888Z,51.12
2018-10-19T09:19:16.270Z,51.38
2018-10-19T09:21:45.057Z,51.06
2018-10-19T09:24:13.521Z,51.38
2018-10-19T09:26:43.097Z,51.46
2018-10-19T09:29:11.751Z,51.71
2018-10-19T09:31:40.110Z,51.12
2018-10-19T09:34:08.545Z,51.48
2018-10-19T09:36:36.988Z,50.48
2018-10-19T09:39:08.778Z,50.73
2018-10-19T09:41:37.052Z,51.14
2018-10-19T09:44:05.571Z,50.61
2018-10-19T09:46:34.033Z,50.60
2018-10-19T09:49:02.500Z,50.51
2018-10-19T09:51:30.845Z,51.67
2018-10-19T09:53:59.259Z,50.92
2018-10-19T09:56:27.629Z,50.37
2018-10-19T09:58:56.007Z,50.66
2018-10-19T10:01:29.525Z,50.06
2018-10-19T10:03:58.041Z,49.87
2018-10-19T10:06:26.405Z,50.66
2018-10-19T10:08:54.953Z,50.25
2018-10-19T10:11:23.253Z,50.12
2018-10-19T10:13:51.800Z,50.43
2018-10-19T10:16:20.297Z,50.46
2018-10-19T10:18:48.683Z,50.21
2018-10-19T10:21:17.389Z,50.72
2018-10-19T10:23:46.413Z,50.86
2018-10-19T10:26:15.887Z,50.75
2018-10-19T10:28:44.367Z,49.69
2018-10-19T10:31:12.747Z,50.08
2018-10-19T10:33:41.139Z,49.65
2018-10-19T10:36:09.517Z,50.04
2018-10-19T10:38:37.899Z,50.72
2018-10-19T10:41:06.377Z,50.12
2018-10-19T10:43:35.064Z,49.36
2018-10-19T10:46:03.631Z,48.90
2018-10-19T10:48:32.228Z,48.91
2018-10-19T10:51:01.060Z,49.25
2018-10-19T10:53:29.579Z,49.55
2018-10-19T10:55:57.916Z,48.73
2018-10-19T10:58:26.350Z,49.39
2018-10-19T11:00:54.776Z,48.64
2018-10-19T11:03:23.156Z,48.80
2018-10-19T11:05:51.527Z,49.26
2018-10-19T11:08:19.921Z,49.35
2018-10-19T11:10:48.368Z,48.79
2018-10-19T11:13:16.840Z,48.99
2018-10-19T11:15:45.257Z,48.69
2018-10-19T11:18:13.605Z,49.01
2018-10-19T11:20:41.953Z,49.33
2018-10-19T11:23:10.970Z,48.91
2018-10-19T11:25:39.424Z,49.52
2018-10-19T11:28:07.853Z,48.66
2018-10-19T11:30:36.326Z,49.49
2018-10-19T11:33:04.764Z,48.51
2018-10-19T11:35:33.466Z,49.32
2018-10-19T11:38:01.961Z,49.54
2018-10-19T11:40:32.717Z,48.47
2018-10-19T11:43:01.212Z,49.31
2018-10-19T11:45:30.901Z,48.84
2018-10-19T11:47:59.271Z,48.49
2018-10-19T11:50:27.707Z,48.22
2018-10-19T11:52:56.434Z,48.09
2018-10-19T11:55:24.827Z,48.60
2018-10-19T11:57:53.484Z,48.28
2018-10-19T12:00:21.929Z,48.91
2018-10-19T12:02:50.293Z,49.04
2018-10-19T12:05:18.768Z,48.38
2018-10-19T12:07:47.144Z,48.40
2018-10-19T12:10:15.749Z,48.34
2018-10-19T12:12:44.401Z,49.18
2018-10-19T12:15:14.045Z,49.25
2018-10-19T12:17:43.080Z,48.95
2018-10-19T12:20:14.172Z,48.72
2018-10-19T12:22:42.561Z,48.30
2018-10-19T12:25:11.937Z,48.52
2018-10-19T12:27:40.657Z,48.52
2018-10-19T12:30:09.817Z,48.72
2018-10-19T12:32:38.337Z,49.09
2018-10-19T12:35:08.173Z,48.59
2018-10-19T12:37:36.590Z,48.42
2018-10-19T12:40:05.041Z,49.08
2018-10-19T12:42:33.389Z,49.06
2018-10-19T12:45:01.862Z,49.15
2018-10-19T12:47:39.774Z,48.81
2018-10-19T12:50:08.588Z,48.37
2018-10-19T12:52:37.117Z,49.06
2018-10-19T12:55:07.029Z,48.72
2018-10-19T12:57:35.554Z,49.14
2018-10-19T13:00:04.376Z,48.38
2018-10-19T13:02:32.781Z,48.72
2018-10-19T13:05:01.129Z,49.04
2018-10-19T13:07:29.652Z,48.78
2018-10-19T13:09:58.036Z,48.39
2018-10-19T13:12:26.584Z,49.05
2018-10-19T13:14:54.961Z,48.73
2018-10-19T13:17:23.318Z,49.00
2018-10-19T13:19:51.698Z,48.64
2018-10-19T13:22:20.080Z,48.26
2018-10-19T13:24:48.448Z,48.26
2018-10-19T13:27:16.877Z,48.10
2018-10-19T13:29:45.237Z,48.50
2018-10-19T13:32:13.640Z,49.08
2018-10-19T13:34:42.042Z,48.48
2018-10-19T13:37:10.456Z,49.14
2018-10-19T13:39:38.804Z,48.17
2018-10-19T13:42:07.155Z,48.10
2018-10-19T13:44:35.516Z,48.30
2018-10-19T13:47:04.017Z,48.50
2018-10-19T13:49:32.373Z,48.27
2018-10-19T13:52:00.814Z,49.17
2018-10-19T13:54:29.144Z,48.93
2018-10-19T13:56:58.560Z,48.97
2018-10-19T13:59:26.912Z,48.71
2018-10-19T14:01:55.272Z,49.02
2018-10-19T14:04:23.636Z,48.36
2018-10-19T14:06:51.981Z,49.19
2018-10-19T14:09:20.328Z,49.23
2018-10-19T14:11:48.736Z,48.43
2018-10-19T14:14:17.116Z,48.65
2018-10-19T14:16:45.537Z,49.11
2018-10-19T14:19:13.959Z,49.27
2018-10-19T14:21:42.280Z,49.27
2018-10-19T14:24:10.685Z,49.30
2018-10-19T14:26:39.097Z,48.52
2018-10-19T14:29:07.431Z,49.37
2018-10-19T14:31:35.784Z,49.27
2018-10-19T14:34:04.187Z,49.14
2018-10-19T14:36:32.558Z,49.53
2018-10-19T14:39:00.999Z,48.61
2018-10-19T14:41:29.348Z,49.15
2018-10-19T14:43:57.703Z,49.58
2018-10-19T14:46:26.029Z,48.95
2018-10-19T14:48:54.451Z,48.87
2018-10-19T14:51:22.763Z,49.63
2018-10-19T14:53:51.151Z,49.24
2018-10-19T14:56:19.517Z,49.27
2018-10-19T14:58:47.895Z,48.84
2018-10-19T15:01:16.288Z,49.76
2018-10-19T15:03:44.899Z,49.04
2018-10-19T15:06:13.468Z,48.97
2018-10-19T15:08:42.081Z,49.64
2018-10-19T15:11:10.968Z,49.37
2018-10-19T15:13:39.446Z,50.13
2018-10-19T15:16:08.079Z,49.48
2018-10-19T15:18:36.755Z,50.21
2018-10-19T15:21:06.149Z,49.14
2018-10-19T15:23:34.496Z,49.38
2018-10-19T15:26:02.840Z,49.68
2018-10-19T15:28:31.176Z,49.44
2018-10-19T15:30:59.500Z,49.18
2018-10-19T15:33:27.874Z,49.85
2018-10-19T15:35:56.250Z,49.25
2018-10-19T15:38:24.598Z,49.30
2018-10-19T15:40:52.920Z,49.54
2018-10-19T15:43:21.296Z,49.93
2018-10-19T15:45:49.616Z,49.44
2018-10-19T15:48:17.995Z,49.57
2018-10-19T15:50:46.376Z,49.31
2018-10-19T15:53:14.756Z,50.23
2018-10-19T15:55:43.113Z,49.79
2018-10-19T15:58:11.445Z,50.40
2018-10-19T16:00:39.881Z,50.39
2018-10-19T16:03:09.096Z,50.37
2018-10-19T16:05:37.385Z,50.34
2018-10-19T16:08:05.841Z,50.00
2018-10-19T16:10:34.224Z,50.39
2018-10-19T16:13:02.632Z,49.79
2018-10-19T16:15:31.020Z,50.12
2018-10-19T16:17:59.354Z,50.60
2018-10-19T16:20:27.704Z,50.96
2018-10-19T16:22:56.060Z,50.73
2018-10-19T16:25:24.493Z,49.93
2018-10-19T16:27:52.883Z,50.10
2018-10-19T16:30:21.240Z,50.04
2018-10-19T16:32:49.572Z,49.89
2018-10-19T16:35:17.965Z,50.59
2018-10-19T16:37:46.339Z,49.96
2018-10-19T16:40:14.730Z,50.89
2018-10-19T16:42:43.158Z,50.52
2018-10-19T16:45:12.208Z,50.50
2018-10-19T16:47:40.485Z,50.37
2018-10-19T16:50:08.841Z,50.95
2018-10-19T16:52:37.297Z,50.74
2018-10-19T16:55:05.796Z,50.48
2018-10-19T16:57:34.217Z,50.79
2018-10-19T17:00:02.647Z,51.09
2018-10-19T17:02:30.992Z,50.43
2018-10-19T17:04:59.372Z,50.93
2018-10-19T17:07:27.733Z,50.17
2018-10-19T17:09:56.114Z,50.28
2018-10-19T17:12:24.445Z,51.05
2018-10-19T17:14:52.849Z,50.64
2018-10-19T17:17:21.236Z,49.99
2018-10-19T17:19:49.604Z,50.34
2018-10-19T17:22:18.056Z,50.25
2018-10-19T17:24:46.424Z,50.41
2018-10-19T17:27:14.872Z,50.85
2018-10-19T17:29:43.188Z,50.67
2018-10-19T17:32:11.623Z,51.09
2018-10-19T17:34:39.972Z,50.68
2018-10-19T17:37:08.417Z,51.19
2018-10-19T17:39:36.722Z,51.02
2018-10-19T17:42:05.274Z,50.18
2018-10-19T17:44:33.644Z,51.21
2018-10-19T17:47:02.241Z,51.09
2018-10-19T17:49:30.622Z,51.10
2018-10-19T17:51:59.036Z,51.39
2018-10-19T17:54:27.424Z,51.11
2018-10-19T17:56:56.495Z,50.96
2018-10-19T17:59:24.835Z,51.07
2018-10-19T18:01:53.211Z,51.52
2018-10-19T18:04:21.834Z,50.96
2018-10-19T18:06:50.280Z,51.23
2018-10-19T18:09:18.778Z,51.59
2018-10-19T18:11:47.469Z,52.08
2018-10-19T18:14:15.912Z,52.14
2018-10-19T18:16:44.369Z,52.78
2018-10-19T18:19:12.817Z,53.25
2018-10-19T18:21:41.981Z,52.92
2018-10-19T18:24:10.397Z,53.49
2018-10-19T18:26:38.876Z,53.26
2018-10-19T18:29:07.417Z,53.56
2018-10-19T18:31:35.864Z,53.10
2018-10-19T18:34:04.308Z,53.06
2018-10-19T18:36:32.899Z,53.39
2018-10-19T18:39:01.217Z,52.79
2018-10-19T18:41:29.689Z,52.65
2018-10-19T18:43:58.130Z,53.27
2018-10-19T18:46:26.532Z,53.38
2018-10-19T18:48:54.968Z,52.45
2018-10-19T18:51:23.348Z,53.32
2018-10-19T18:53:51.765Z,52.53
2018-10-19T18:56:20.272Z,53.07
2018-10-19T18:58:48.793Z,53.27
2018-10-19T19:01:17.349Z,52.51
2018-10-19T19:03:45.753Z,53.35
2018-10-19T19:06:14.312Z,52.72
2018-10-19T19:08:42.836Z,53.55
2018-10-19T19:11:11.334Z,53.25
2018-10-19T19:13:45.548Z,53.45
2018-10-19T19:16:19.420Z,53.24
2018-10-19T19:18:48.045Z,52.80
2018-10-19T19:21:16.543Z,53.14
2018-10-19T19:23:50.321Z,52.70
2018-10-19T19:26:20.454Z,52.74
2018-10-19T19:28:48.842Z,52.68
2018-10-19T19:31:17.360Z,53.37
2018-10-19T19:33:51.018Z,52.72
2018-10-19T19:36:19.451Z,53.52
2018-10-19T19:38:48.035Z,52.79
2018-10-19T19:41:21.981Z,52.58
2018-10-19T19:43:50.532Z,52.23
2018-10-19T19:46:19.001Z,52.55
2018-10-19T19:48:52.782Z,52.60
2018-10-19T19:51:21.164Z,52.61
2018-10-19T19:53:49.648Z,52.96
2018-10-19T19:56:18.042Z,53.29
2018-10-19T19:58:46.348Z,52.76
2018-10-19T20:01:14.772Z,52.72
2018-10-19T20:03:43.092Z,52.78
2018-10-19T20:06:11.459Z,53.44
2018-10-19T20:08:39.820Z,52.88
2018-10-19T20:11:08.556Z,52.60
2018-10-19T20:13:36.856Z,52.70
2018-10-19T20:16:05.318Z,52.56
2018-10-19T20:18:33.692Z,52.37
2018-10-19T20:21:02.164Z,52.81
2018-10-19T20:23:30.638Z,53.04
2018-10-19T20:25:58.990Z,53.30
2018-10-19T20:28:27.310Z,52.33
2018-10-19T20:30:56.409Z,52.60
2018-10-19T20:33:24.852Z,52.72
2018-10-19T20:35:53.158Z,52.16
2018-10-19T20:38:21.540Z,52.80
2018-10-19T20:40:49.908Z,53.05
2018-10-19T20:43:18.260Z,52.32
2018-10-19T20:45:46.917Z,53.15
2018-10-19T20:48:15.377Z,52.95
2018-10-19T20:50:43.870Z,52.39
2018-10-19T20:53:12.416Z,52.41
2018-10-19T20:55:40.729Z,52.16
2018-10-19T20:58:09.244Z,53.03
2018-10-19T21:00:37.573Z,53.08
2018-10-19T21:03:05.968Z,52.54
2018-10-19T21:05:34.368Z,52.64
2018-10-19T21:08:02.818Z,51.94
2018-10-19T21:10:31.132Z,52.48
2018-10-19T21:12:59.713Z,52.65
2018-10-19T21:15:28.312Z,52.73
2018-10-19T21:17:56.796Z,52.57
2018-10-19T21:20:25.164Z,52.46
2018-10-19T21:22:54.361Z,52.63
2018-10-19T21:25:22.713Z,53.01
2018-10-19T21:27:51.084Z,52.31
2018-10-19T21:30:19.446Z,53.02
2018-10-19T21:32:47.854Z,52.60
2018-10-19T21:35:16.293Z,52.28
2018-10-19T21:37:44.633Z,53.04
2018-10-19T21:40:13.061Z,52.92
2018-10-19T21:42:41.403Z,52.29
2018-10-19T21:45:09.796Z,53.56
2018-10-19T21:47:38.217Z,52.48
2018-10-19T21:50:07.473Z,52.99
2018-10-19T21:52:35.784Z,52.96
2018-10-19T21:55:04.206Z,53.18
2018-10-19T21:57:32.633Z,52.57
2018-10-19T22:00:01.065Z,52.21
2018-10-19T22:02:29.495Z,52.61
2018-10-19T22:04:57.915Z,52.31
2018-10-19T22:07:26.302Z,52.88
2018-10-19T22:09:54.656Z,52.60
2018-10-19T22:12:23.052Z,52.84
2018-10-19T22:14:51.425Z,52.45
2018-10-19T22:17:19.817Z,52.69
2018-10-19T22:19:48.177Z,52.97
2018-10-19T22:22:16.564Z,52.05
2018-10-19T22:24:45.104Z,51.86
2018-10-19T22:27:13.435Z,52.46
2018-10-19T22:29:41.784Z,52.96
2018-10-19T22:32:10.164Z,52.29
2018-10-19T22:34:38.504Z,52.86
2018-10-19T22:37:06.870Z,52.00
2018-10-19T22:39:35.194Z,52.75
2018-10-19T22:42:03.617Z,52.55
2018-10-19T22:44:32.031Z,52.67
2018-10-19T22:47:00.380Z,52.08
2018-10-19T22:49:28.725Z,52.35
2018-10-19T22:51:57.067Z,52.86
2018-10-19T22:54:25.404Z,52.56
2018-10-19T22:56:53.856Z,52.37
2018-10-19T22:59:22.284Z,52.69
2018-10-19T23:01:50.615Z,52.18
2018-10-19T23:04:19.028Z,52.99
2018-10-19T23:06:47.496Z,52.15
2018-10-19T23:09:15.925Z,52.06
2018-10-19T23:11:44.296Z,52.70
2018-10-19T23:14:12.692Z,52.36
2018-10-19T23:16:41.564Z,52.88
2018-10-19T23:19:09.960Z,52.24
2018-10-19T23:21:38.362Z,52.95
2018-10-19T23:24:07.340Z,52.44
2018-10-19T23:26:35.731Z,52.20
2018-10-19T23:29:04.745Z,53.01
2018-10-19T23:31:33.175Z,52.01
2018-10-19T23:34:01.504Z,52.73
2018-10-19T23:36:29.827Z,52.84
2018-10-19T23:38:58.192Z,52.41
2018-10-19T23:41:26.535Z,52.89
2018-10-19T23:43:55.015Z,52.71
2018-10-19T23:46:23.280Z,52.73
2018-10-19T23:48:51.640Z,52.93
2018-10-19T23:51:19.992Z,52.50
2018-10-19T23:53:48.344Z,52.32
2018-10-19T23:56:16.720Z,52.06
2018-10-19T23:58:45.624Z,52.41
